sensor_id;sensor_type;location;lat;lon;timestamp;P1;durP1;ratioP1;P2;durP2;ratioP2
23561;SDS011;11959;49.418;8.728;2023-06-22T00:00:51;6.43;;;5.22;;
23561;SDS011;11959;49.418;8.728;2023-06-22T00:03:18;7.82;;;6.03;;
23561;SDS011;11959;49.418;8.728;2023-06-22T00:05:45;9.25;;;5.82;;
23561;SDS011;11959;49.418;8.728;2023-06-22T00:08:11;8.18;;;6.32;;
23561;SDS011;11959;49.418;8.728;2023-06-22T00:10:37;6.72;;;6.03;;
23561;SDS011;11959;49.418;8.728;2023-06-22T00:13:02;7.25;;;6.03;;
23561;SDS011;11959;49.418;8.728;2023-06-22T00:15:28;7.85;;;6.00;;
23561;SDS011;11959;49.418;8.728;2023-06-22T00:17:54;7.22;;;5.95;;
23561;SDS011;11959;49.418;8.728;2023-06-22T00:20:20;7.70;;;5.60;;
23561;SDS011;11959;49.418;8.728;2023-06-22T00:22:45;7.70;;;6.32;;
23561;SDS011;11959;49.418;8.728;2023-06-22T00:25:12;7.10;;;6.03;;
23561;SDS011;11959;49.418;8.728;2023-06-22T00:27:38;8.27;;;5.80;;
23561;SDS011;11959;49.418;8.728;2023-06-22T00:30:04;6.28;;;5.45;;
23561;SDS011;11959;49.418;8.728;2023-06-22T00:32:30;5.85;;;5.20;;
23561;SDS011;11959;49.418;8.728;2023-06-22T00:34:56;7.05;;;5.30;;
23561;SDS011;11959;49.418;8.728;2023-06-22T00:37:21;5.78;;;5.00;;
23561;SDS011;11959;49.418;8.728;2023-06-22T00:39:54;7.65;;;5.35;;
23561;SDS011;11959;49.418;8.728;2023-06-22T00:42:20;5.22;;;4.70;;
23561;SDS011;11959;49.418;8.728;2023-06-22T00:44:46;5.28;;;4.70;;
23561;SDS011;11959;49.418;8.728;2023-06-22T00:47:12;5.97;;;5.00;;
23561;SDS011;11959;49.418;8.728;2023-06-22T00:49:41;6.18;;;4.82;;
23561;SDS011;11959;49.418;8.728;2023-06-22T00:52:07;8.32;;;5.10;;
23561;SDS011;11959;49.418;8.728;2023-06-22T00:54:34;6.22;;;5.00;;
23561;SDS011;11959;49.418;8.728;2023-06-22T00:57:01;5.95;;;5.13;;
23561;SDS011;11959;49.418;8.728;2023-06-22T00:59:27;8.43;;;5.10;;
23561;SDS011;11959;49.418;8.728;2023-06-22T01:01:53;8.45;;;5.30;;
23561;SDS011;11959;49.418;8.728;2023-06-22T01:04:19;6.85;;;6.05;;
23561;SDS011;11959;49.418;8.728;2023-06-22T01:06:54;9.05;;;6.25;;
23561;SDS011;11959;49.418;8.728;2023-06-22T01:09:31;9.73;;;6.35;;
23561;SDS011;11959;49.418;8.728;2023-06-22T01:12:01;9.15;;;6.70;;
23561;SDS011;11959;49.418;8.728;2023-06-22T01:17:02;8.07;;;6.55;;
23561;SDS011;11959;49.418;8.728;2023-06-22T01:22:07;11.73;;;6.70;;
23561;SDS011;11959;49.418;8.728;2023-06-22T01:25:26;9.15;;;6.22;;
23561;SDS011;11959;49.418;8.728;2023-06-22T01:30:16;7.97;;;6.20;;
23561;SDS011;11959;49.418;8.728;2023-06-22T01:32:43;9.52;;;5.90;;
23561;SDS011;11959;49.418;8.728;2023-06-22T01:35:10;8.52;;;6.50;;
23561;SDS011;11959;49.418;8.728;2023-06-22T01:37:37;8.45;;;6.20;;
23561;SDS011;11959;49.418;8.728;2023-06-22T01:40:07;8.52;;;6.22;;
23561;SDS011;11959;49.418;8.728;2023-06-22T01:42:33;9.27;;;7.13;;
23561;SDS011;11959;49.418;8.728;2023-06-22T01:45:00;10.20;;;6.70;;
23561;SDS011;11959;49.418;8.728;2023-06-22T01:47:27;8.80;;;6.03;;
23561;SDS011;11959;49.418;8.728;2023-06-22T01:49:53;8.13;;;6.55;;
23561;SDS011;11959;49.418;8.728;2023-06-22T01:52:20;11.10;;;6.43;;
23561;SDS011;11959;49.418;8.728;2023-06-22T01:54:46;9.07;;;6.10;;
23561;SDS011;11959;49.418;8.728;2023-06-22T01:57:11;8.52;;;6.13;;
23561;SDS011;11959;49.418;8.728;2023-06-22T02:02:09;8.27;;;6.07;;
23561;SDS011;11959;49.418;8.728;2023-06-22T02:04:38;7.75;;;6.00;;
23561;SDS011;11959;49.418;8.728;2023-06-22T02:07:15;6.85;;;6.15;;
23561;SDS011;11959;49.418;8.728;2023-06-22T02:09:44;8.15;;;6.18;;
23561;SDS011;11959;49.418;8.728;2023-06-22T02:12:12;6.78;;;6.07;;
23561;SDS011;11959;49.418;8.728;2023-06-22T02:14:42;9.02;;;6.40;;
23561;SDS011;11959;49.418;8.728;2023-06-22T02:17:09;7.95;;;5.93;;
23561;SDS011;11959;49.418;8.728;2023-06-22T02:19:36;6.85;;;5.93;;
23561;SDS011;11959;49.418;8.728;2023-06-22T02:22:03;7.35;;;5.68;;
23561;SDS011;11959;49.418;8.728;2023-06-22T02:24:29;7.38;;;6.25;;
23561;SDS011;11959;49.418;8.728;2023-06-22T02:26:58;8.35;;;6.45;;
23561;SDS011;11959;49.418;8.728;2023-06-22T02:29:25;6.97;;;5.85;;
23561;SDS011;11959;49.418;8.728;2023-06-22T02:31:52;8.02;;;6.00;;
23561;SDS011;11959;49.418;8.728;2023-06-22T02:34:18;6.72;;;5.85;;
23561;SDS011;11959;49.418;8.728;2023-06-22T02:36:45;9.30;;;7.00;;
23561;SDS011;11959;49.418;8.728;2023-06-22T02:39:16;7.53;;;6.68;;
23561;SDS011;11959;49.418;8.728;2023-06-22T02:41:47;7.82;;;6.65;;
23561;SDS011;11959;49.418;8.728;2023-06-22T02:44:16;9.75;;;7.13;;
23561;SDS011;11959;49.418;8.728;2023-06-22T02:46:42;7.70;;;6.43;;
23561;SDS011;11959;49.418;8.728;2023-06-22T02:49:09;9.93;;;6.93;;
23561;SDS011;11959;49.418;8.728;2023-06-22T02:51:35;8.02;;;6.35;;
23561;SDS011;11959;49.418;8.728;2023-06-22T02:54:04;7.22;;;6.20;;
23561;SDS011;11959;49.418;8.728;2023-06-22T02:56:30;8.85;;;6.07;;
23561;SDS011;11959;49.418;8.728;2023-06-22T02:58:56;7.25;;;6.25;;
23561;SDS011;11959;49.418;8.728;2023-06-22T03:01:26;8.02;;;6.47;;
23561;SDS011;11959;49.418;8.728;2023-06-22T03:03:53;8.55;;;6.40;;
23561;SDS011;11959;49.418;8.728;2023-06-22T03:06:19;8.57;;;6.45;;
23561;SDS011;11959;49.418;8.728;2023-06-22T03:08:48;8.68;;;7.15;;
23561;SDS011;11959;49.418;8.728;2023-06-22T03:11:15;9.20;;;6.80;;
23561;SDS011;11959;49.418;8.728;2023-06-22T03:13:41;8.18;;;6.80;;
23561;SDS011;11959;49.418;8.728;2023-06-22T03:16:06;9.68;;;7.20;;
23561;SDS011;11959;49.418;8.728;2023-06-22T03:18:32;7.90;;;6.70;;
23561;SDS011;11959;49.418;8.728;2023-06-22T03:20:57;7.90;;;7.10;;
23561;SDS011;11959;49.418;8.728;2023-06-22T03:23:23;8.90;;;6.80;;
23561;SDS011;11959;49.418;8.728;2023-06-22T03:25:49;8.75;;;6.68;;
23561;SDS011;11959;49.418;8.728;2023-06-22T03:28:15;10.10;;;7.32;;
23561;SDS011;11959;49.418;8.728;2023-06-22T03:30:40;9.63;;;6.93;;
23561;SDS011;11959;49.418;8.728;2023-06-22T03:33:06;7.82;;;6.88;;
23561;SDS011;11959;49.418;8.728;2023-06-22T03:35:33;7.90;;;7.07;;
23561;SDS011;11959;49.418;8.728;2023-06-22T03:37:58;8.30;;;7.00;;
23561;SDS011;11959;49.418;8.728;2023-06-22T03:40:25;9.55;;;7.05;;
23561;SDS011;11959;49.418;8.728;2023-06-22T03:42:51;8.02;;;6.80;;
23561;SDS011;11959;49.418;8.728;2023-06-22T03:45:16;9.70;;;6.88;;
23561;SDS011;11959;49.418;8.728;2023-06-22T03:47:42;7.75;;;6.75;;
23561;SDS011;11959;49.418;8.728;2023-06-22T03:50:08;8.48;;;7.05;;
23561;SDS011;11959;49.418;8.728;2023-06-22T03:52:34;9.63;;;7.00;;
23561;SDS011;11959;49.418;8.728;2023-06-22T03:54:59;11.93;;;8.02;;
23561;SDS011;11959;49.418;8.728;2023-06-22T03:57:25;9.02;;;6.95;;
23561;SDS011;11959;49.418;8.728;2023-06-22T03:59:51;8.23;;;6.85;;
23561;SDS011;11959;49.418;8.728;2023-06-22T04:02:16;9.45;;;7.53;;
23561;SDS011;11959;49.418;8.728;2023-06-22T04:04:42;9.27;;;7.15;;
23561;SDS011;11959;49.418;8.728;2023-06-22T04:07:07;8.82;;;7.85;;
23561;SDS011;11959;49.418;8.728;2023-06-22T04:09:33;8.85;;;7.57;;
23561;SDS011;11959;49.418;8.728;2023-06-22T04:11:59;8.73;;;7.18;;
23561;SDS011;11959;49.418;8.728;2023-06-22T04:14:25;9.00;;;7.47;;
23561;SDS011;11959;49.418;8.728;2023-06-22T04:16:51;9.52;;;7.78;;
23561;SDS011;11959;49.418;8.728;2023-06-22T04:19:17;11.90;;;7.75;;
23561;SDS011;11959;49.418;8.728;2023-06-22T04:21:43;9.68;;;7.25;;
23561;SDS011;11959;49.418;8.728;2023-06-22T04:24:09;8.88;;;7.45;;
23561;SDS011;11959;49.418;8.728;2023-06-22T04:26:36;9.10;;;7.70;;
23561;SDS011;11959;49.418;8.728;2023-06-22T04:29:05;9.00;;;7.22;;
23561;SDS011;11959;49.418;8.728;2023-06-22T04:31:31;10.88;;;7.80;;
23561;SDS011;11959;49.418;8.728;2023-06-22T04:34:01;10.10;;;7.93;;
23561;SDS011;11959;49.418;8.728;2023-06-22T04:36:38;10.85;;;7.70;;
23561;SDS011;11959;49.418;8.728;2023-06-22T04:39:09;8.88;;;7.28;;
23561;SDS011;11959;49.418;8.728;2023-06-22T04:41:36;11.10;;;8.00;;
23561;SDS011;11959;49.418;8.728;2023-06-22T04:44:11;9.57;;;7.72;;
23561;SDS011;11959;49.418;8.728;2023-06-22T04:46:38;9.55;;;7.38;;
23561;SDS011;11959;49.418;8.728;2023-06-22T04:49:08;8.45;;;7.53;;
23561;SDS011;11959;49.418;8.728;2023-06-22T04:51:38;8.35;;;7.53;;
23561;SDS011;11959;49.418;8.728;2023-06-22T04:54:07;9.32;;;7.15;;
23561;SDS011;11959;49.418;8.728;2023-06-22T04:56:34;10.35;;;7.38;;
23561;SDS011;11959;49.418;8.728;2023-06-22T04:59:01;10.80;;;7.80;;
23561;SDS011;11959;49.418;8.728;2023-06-22T05:01:28;8.57;;;6.97;;
23561;SDS011;11959;49.418;8.728;2023-06-22T05:03:55;9.23;;;7.15;;
23561;SDS011;11959;49.418;8.728;2023-06-22T05:06:22;7.68;;;6.88;;
23561;SDS011;11959;49.418;8.728;2023-06-22T05:08:51;8.98;;;7.10;;
23561;SDS011;11959;49.418;8.728;2023-06-22T05:11:18;9.77;;;7.60;;
23561;SDS011;11959;49.418;8.728;2023-06-22T05:13:44;9.25;;;7.65;;
23561;SDS011;11959;49.418;8.728;2023-06-22T05:16:09;9.48;;;7.32;;
23561;SDS011;11959;49.418;8.728;2023-06-22T05:18:35;8.27;;;7.30;;
23561;SDS011;11959;49.418;8.728;2023-06-22T05:21:01;8.82;;;6.97;;
23561;SDS011;11959;49.418;8.728;2023-06-22T05:23:28;9.90;;;7.20;;
23561;SDS011;11959;49.418;8.728;2023-06-22T05:25:53;9.95;;;7.43;;
23561;SDS011;11959;49.418;8.728;2023-06-22T05:28:19;8.15;;;7.20;;
23561;SDS011;11959;49.418;8.728;2023-06-22T05:30:48;8.48;;;7.05;;
23561;SDS011;11959;49.418;8.728;2023-06-22T05:33:13;16.25;;;9.32;;
23561;SDS011;11959;49.418;8.728;2023-06-22T05:35:39;19.58;;;9.18;;
23561;SDS011;11959;49.418;8.728;2023-06-22T05:38:04;27.98;;;12.15;;
23561;SDS011;11959;49.418;8.728;2023-06-22T05:40:30;42.67;;;17.27;;
23561;SDS011;11959;49.418;8.728;2023-06-22T05:42:56;27.38;;;13.38;;
23561;SDS011;11959;49.418;8.728;2023-06-22T05:45:21;20.83;;;10.80;;
23561;SDS011;11959;49.418;8.728;2023-06-22T05:47:47;24.40;;;11.07;;
23561;SDS011;11959;49.418;8.728;2023-06-22T05:50:12;25.83;;;11.65;;
23561;SDS011;11959;49.418;8.728;2023-06-22T05:52:38;28.00;;;12.80;;
23561;SDS011;11959;49.418;8.728;2023-06-22T05:55:04;25.13;;;10.95;;
23561;SDS011;11959;49.418;8.728;2023-06-22T05:57:30;13.07;;;7.90;;
23561;SDS011;11959;49.418;8.728;2023-06-22T05:59:55;10.55;;;7.43;;
23561;SDS011;11959;49.418;8.728;2023-06-22T06:02:21;8.98;;;7.40;;
23561;SDS011;11959;49.418;8.728;2023-06-22T06:04:46;9.35;;;6.97;;
23561;SDS011;11959;49.418;8.728;2023-06-22T06:07:12;12.43;;;7.65;;
23561;SDS011;11959;49.418;8.728;2023-06-22T06:09:38;15.65;;;8.57;;
23561;SDS011;11959;49.418;8.728;2023-06-22T06:12:03;10.30;;;7.80;;
23561;SDS011;11959;49.418;8.728;2023-06-22T06:14:29;7.45;;;6.20;;
23561;SDS011;11959;49.418;8.728;2023-06-22T06:16:55;8.48;;;6.50;;
23561;SDS011;11959;49.418;8.728;2023-06-22T06:19:20;7.78;;;6.20;;
23561;SDS011;11959;49.418;8.728;2023-06-22T06:21:46;8.57;;;6.20;;
23561;SDS011;11959;49.418;8.728;2023-06-22T06:24:12;8.73;;;6.95;;
23561;SDS011;11959;49.418;8.728;2023-06-22T06:26:38;8.13;;;6.40;;
23561;SDS011;11959;49.418;8.728;2023-06-22T06:29:04;8.60;;;6.15;;
23561;SDS011;11959;49.418;8.728;2023-06-22T06:31:29;6.88;;;6.03;;
23561;SDS011;11959;49.418;8.728;2023-06-22T06:33:55;10.50;;;6.65;;
23561;SDS011;11959;49.418;8.728;2023-06-22T06:36:21;8.48;;;6.53;;
23561;SDS011;11959;49.418;8.728;2023-06-22T06:38:47;7.20;;;5.95;;
23561;SDS011;11959;49.418;8.728;2023-06-22T06:41:13;7.63;;;6.38;;
23561;SDS011;11959;49.418;8.728;2023-06-22T06:43:40;8.43;;;6.38;;
23561;SDS011;11959;49.418;8.728;2023-06-22T06:46:07;6.50;;;5.72;;
23561;SDS011;11959;49.418;8.728;2023-06-22T06:48:33;7.60;;;6.15;;
23561;SDS011;11959;49.418;8.728;2023-06-22T06:50:58;8.95;;;5.75;;
23561;SDS011;11959;49.418;8.728;2023-06-22T06:53:24;7.07;;;6.20;;
23561;SDS011;11959;49.418;8.728;2023-06-22T06:55:50;10.35;;;6.07;;
23561;SDS011;11959;49.418;8.728;2023-06-22T06:58:15;9.38;;;6.32;;
23561;SDS011;11959;49.418;8.728;2023-06-22T07:00:41;7.25;;;6.55;;
23561;SDS011;11959;49.418;8.728;2023-06-22T07:03:08;7.05;;;5.65;;
23561;SDS011;11959;49.418;8.728;2023-06-22T07:05:34;6.72;;;5.90;;
23561;SDS011;11959;49.418;8.728;2023-06-22T07:08:00;7.32;;;5.95;;
23561;SDS011;11959;49.418;8.728;2023-06-22T07:10:28;7.25;;;5.68;;
23561;SDS011;11959;49.418;8.728;2023-06-22T07:12:54;10.45;;;5.93;;
23561;SDS011;11959;49.418;8.728;2023-06-22T07:15:20;7.32;;;6.10;;
23561;SDS011;11959;49.418;8.728;2023-06-22T07:17:46;8.27;;;5.78;;
23561;SDS011;11959;49.418;8.728;2023-06-22T07:20:11;7.40;;;6.03;;
23561;SDS011;11959;49.418;8.728;2023-06-22T07:22:37;10.13;;;6.38;;
23561;SDS011;11959;49.418;8.728;2023-06-22T07:25:07;8.68;;;6.10;;
23561;SDS011;11959;49.418;8.728;2023-06-22T07:27:44;6.80;;;5.97;;
23561;SDS011;11959;49.418;8.728;2023-06-22T07:30:10;7.40;;;5.70;;
23561;SDS011;11959;49.418;8.728;2023-06-22T07:32:37;7.22;;;5.53;;
23561;SDS011;11959;49.418;8.728;2023-06-22T07:35:03;6.55;;;5.78;;
23561;SDS011;11959;49.418;8.728;2023-06-22T07:37:29;8.32;;;5.88;;
23561;SDS011;11959;49.418;8.728;2023-06-22T07:39:56;8.82;;;5.95;;
23561;SDS011;11959;49.418;8.728;2023-06-22T07:42:26;8.63;;;6.15;;
23561;SDS011;11959;49.418;8.728;2023-06-22T07:44:52;7.28;;;5.25;;
23561;SDS011;11959;49.418;8.728;2023-06-22T07:47:18;8.07;;;6.13;;
23561;SDS011;11959;49.418;8.728;2023-06-22T07:49:44;8.80;;;5.93;;
23561;SDS011;11959;49.418;8.728;2023-06-22T07:52:11;7.78;;;5.85;;
23561;SDS011;11959;49.418;8.728;2023-06-22T07:54:36;6.72;;;5.57;;
23561;SDS011;11959;49.418;8.728;2023-06-22T07:57:02;6.80;;;5.55;;
23561;SDS011;11959;49.418;8.728;2023-06-22T07:59:28;6.28;;;5.45;;
23561;SDS011;11959;49.418;8.728;2023-06-22T08:01:54;7.32;;;5.50;;
23561;SDS011;11959;49.418;8.728;2023-06-22T08:04:20;6.72;;;5.57;;
23561;SDS011;11959;49.418;8.728;2023-06-22T08:06:46;7.85;;;5.72;;
23561;SDS011;11959;49.418;8.728;2023-06-22T08:09:12;7.82;;;5.65;;
23561;SDS011;11959;49.418;8.728;2023-06-22T08:11:37;7.35;;;6.03;;
23561;SDS011;11959;49.418;8.728;2023-06-22T08:14:03;9.75;;;5.90;;
23561;SDS011;11959;49.418;8.728;2023-06-22T08:16:29;8.18;;;5.68;;
23561;SDS011;11959;49.418;8.728;2023-06-22T08:18:54;7.40;;;6.07;;
23561;SDS011;11959;49.418;8.728;2023-06-22T08:21:21;6.88;;;5.40;;
23561;SDS011;11959;49.418;8.728;2023-06-22T08:23:47;7.45;;;5.97;;
23561;SDS011;11959;49.418;8.728;2023-06-22T08:26:14;7.03;;;5.78;;
23561;SDS011;11959;49.418;8.728;2023-06-22T08:28:39;7.72;;;5.75;;
23561;SDS011;11959;49.418;8.728;2023-06-22T08:31:05;7.72;;;6.00;;
23561;SDS011;11959;49.418;8.728;2023-06-22T08:33:31;6.57;;;5.60;;
23561;SDS011;11959;49.418;8.728;2023-06-22T08:35:57;8.20;;;5.70;;
23561;SDS011;11959;49.418;8.728;2023-06-22T08:38:23;6.07;;;5.47;;
23561;SDS011;11959;49.418;8.728;2023-06-22T08:40:49;6.88;;;5.55;;
23561;SDS011;11959;49.418;8.728;2023-06-22T08:43:15;7.30;;;5.45;;
23561;SDS011;11959;49.418;8.728;2023-06-22T08:45:40;6.72;;;5.47;;
23561;SDS011;11959;49.418;8.728;2023-06-22T08:48:06;7.70;;;5.97;;
23561;SDS011;11959;49.418;8.728;2023-06-22T08:50:32;8.75;;;5.88;;
23561;SDS011;11959;49.418;8.728;2023-06-22T08:52:57;7.00;;;5.50;;
23561;SDS011;11959;49.418;8.728;2023-06-22T08:55:23;7.85;;;5.65;;
23561;SDS011;11959;49.418;8.728;2023-06-22T08:57:49;8.00;;;5.60;;
23561;SDS011;11959;49.418;8.728;2023-06-22T09:00:14;8.70;;;5.80;;
23561;SDS011;11959;49.418;8.728;2023-06-22T09:02:42;8.13;;;5.57;;
23561;SDS011;11959;49.418;8.728;2023-06-22T09:05:09;7.68;;;5.80;;
23561;SDS011;11959;49.418;8.728;2023-06-22T09:07:35;7.18;;;5.95;;
23561;SDS011;11959;49.418;8.728;2023-06-22T09:10:00;8.38;;;5.75;;
23561;SDS011;11959;49.418;8.728;2023-06-22T09:12:26;9.15;;;5.90;;
23561;SDS011;11959;49.418;8.728;2023-06-22T09:14:55;7.30;;;5.00;;
23561;SDS011;11959;49.418;8.728;2023-06-22T09:17:21;8.57;;;6.05;;
23561;SDS011;11959;49.418;8.728;2023-06-22T09:19:47;8.05;;;5.57;;
23561;SDS011;11959;49.418;8.728;2023-06-22T09:22:13;6.63;;;5.40;;
23561;SDS011;11959;49.418;8.728;2023-06-22T09:24:39;6.55;;;5.63;;
23561;SDS011;11959;49.418;8.728;2023-06-22T09:27:05;10.55;;;6.30;;
23561;SDS011;11959;49.418;8.728;2023-06-22T09:29:30;8.80;;;6.00;;
23561;SDS011;11959;49.418;8.728;2023-06-22T09:31:58;7.10;;;5.55;;
23561;SDS011;11959;49.418;8.728;2023-06-22T09:34:24;9.40;;;6.03;;
23561;SDS011;11959;49.418;8.728;2023-06-22T09:36:50;8.88;;;5.80;;
23561;SDS011;11959;49.418;8.728;2023-06-22T09:39:17;8.95;;;5.65;;
23561;SDS011;11959;49.418;8.728;2023-06-22T09:41:43;8.73;;;5.60;;
23561;SDS011;11959;49.418;8.728;2023-06-22T09:44:09;8.65;;;6.28;;
23561;SDS011;11959;49.418;8.728;2023-06-22T09:46:34;9.15;;;5.85;;
23561;SDS011;11959;49.418;8.728;2023-06-22T09:49:00;8.95;;;5.88;;
23561;SDS011;11959;49.418;8.728;2023-06-22T09:51:26;9.50;;;5.93;;
23561;SDS011;11959;49.418;8.728;2023-06-22T09:53:52;8.23;;;6.35;;
23561;SDS011;11959;49.418;8.728;2023-06-22T09:56:20;8.93;;;6.57;;
23561;SDS011;11959;49.418;8.728;2023-06-22T09:58:47;8.30;;;5.90;;
23561;SDS011;11959;49.418;8.728;2023-06-22T10:01:15;8.15;;;6.18;;
23561;SDS011;11959;49.418;8.728;2023-06-22T10:03:41;10.35;;;5.90;;
23561;SDS011;11959;49.418;8.728;2023-06-22T10:06:07;8.77;;;6.30;;
23561;SDS011;11959;49.418;8.728;2023-06-22T10:08:33;7.72;;;5.97;;
23561;SDS011;11959;49.418;8.728;2023-06-22T10:10:59;8.57;;;5.90;;
23561;SDS011;11959;49.418;8.728;2023-06-22T10:13:25;9.43;;;5.90;;
23561;SDS011;11959;49.418;8.728;2023-06-22T10:15:51;9.48;;;6.10;;
23561;SDS011;11959;49.418;8.728;2023-06-22T10:18:20;10.25;;;5.85;;
23561;SDS011;11959;49.418;8.728;2023-06-22T10:20:49;9.45;;;6.10;;
23561;SDS011;11959;49.418;8.728;2023-06-22T10:23:16;8.48;;;6.38;;
23561;SDS011;11959;49.418;8.728;2023-06-22T10:25:43;11.45;;;6.07;;
23561;SDS011;11959;49.418;8.728;2023-06-22T10:28:08;9.30;;;6.32;;
23561;SDS011;11959;49.418;8.728;2023-06-22T10:30:34;9.35;;;6.70;;
23561;SDS011;11959;49.418;8.728;2023-06-22T10:32:59;6.93;;;5.68;;
23561;SDS011;11959;49.418;8.728;2023-06-22T10:35:25;8.68;;;6.22;;
23561;SDS011;11959;49.418;8.728;2023-06-22T10:37:51;8.80;;;5.93;;
23561;SDS011;11959;49.418;8.728;2023-06-22T10:40:17;9.35;;;6.20;;
23561;SDS011;11959;49.418;8.728;2023-06-22T10:42:44;9.60;;;6.28;;
23561;SDS011;11959;49.418;8.728;2023-06-22T10:45:09;7.32;;;5.70;;
23561;SDS011;11959;49.418;8.728;2023-06-22T10:47:36;8.45;;;5.75;;
23561;SDS011;11959;49.418;8.728;2023-06-22T10:50:02;10.45;;;6.15;;
23561;SDS011;11959;49.418;8.728;2023-06-22T10:52:28;11.45;;;5.90;;
23561;SDS011;11959;49.418;8.728;2023-06-22T10:54:54;9.77;;;6.22;;
23561;SDS011;11959;49.418;8.728;2023-06-22T10:57:19;7.90;;;5.50;;
23561;SDS011;11959;49.418;8.728;2023-06-22T10:59:46;9.10;;;5.65;;
23561;SDS011;11959;49.418;8.728;2023-06-22T11:02:12;8.55;;;5.75;;
23561;SDS011;11959;49.418;8.728;2023-06-22T11:04:38;8.38;;;5.78;;
23561;SDS011;11959;49.418;8.728;2023-06-22T11:07:03;8.20;;;5.63;;
23561;SDS011;11959;49.418;8.728;2023-06-22T11:09:30;11.38;;;6.20;;
23561;SDS011;11959;49.418;8.728;2023-06-22T11:11:56;8.45;;;5.95;;
23561;SDS011;11959;49.418;8.728;2023-06-22T11:14:23;8.32;;;6.00;;
23561;SDS011;11959;49.418;8.728;2023-06-22T11:16:49;9.40;;;6.00;;
23561;SDS011;11959;49.418;8.728;2023-06-22T11:19:15;9.25;;;5.82;;
23561;SDS011;11959;49.418;8.728;2023-06-22T11:21:41;9.00;;;5.50;;
23561;SDS011;11959;49.418;8.728;2023-06-22T11:24:07;9.18;;;6.15;;
23561;SDS011;11959;49.418;8.728;2023-06-22T11:26:32;11.55;;;5.55;;
23561;SDS011;11959;49.418;8.728;2023-06-22T11:28:58;7.95;;;5.45;;
23561;SDS011;11959;49.418;8.728;2023-06-22T11:31:24;8.02;;;5.95;;
23561;SDS011;11959;49.418;8.728;2023-06-22T11:33:51;10.20;;;5.75;;
23561;SDS011;11959;49.418;8.728;2023-06-22T11:36:17;9.13;;;5.50;;
23561;SDS011;11959;49.418;8.728;2023-06-22T11:38:43;10.27;;;5.60;;
23561;SDS011;11959;49.418;8.728;2023-06-22T11:41:09;7.72;;;6.18;;
23561;SDS011;11959;49.418;8.728;2023-06-22T11:43:36;10.38;;;5.85;;
23561;SDS011;11959;49.418;8.728;2023-06-22T11:46:02;7.93;;;5.90;;
23561;SDS011;11959;49.418;8.728;2023-06-22T11:48:29;10.50;;;5.70;;
23561;SDS011;11959;49.418;8.728;2023-06-22T11:50:55;9.45;;;5.38;;
23561;SDS011;11959;49.418;8.728;2023-06-22T11:53:21;9.05;;;5.68;;
23561;SDS011;11959;49.418;8.728;2023-06-22T11:55:49;7.78;;;5.53;;
23561;SDS011;11959;49.418;8.728;2023-06-22T11:58:15;7.18;;;4.90;;
23561;SDS011;11959;49.418;8.728;2023-06-22T12:00:40;8.30;;;5.55;;
23561;SDS011;11959;49.418;8.728;2023-06-22T12:03:06;9.13;;;6.00;;
23561;SDS011;11959;49.418;8.728;2023-06-22T12:05:33;8.18;;;5.70;;
23561;SDS011;11959;49.418;8.728;2023-06-22T12:07:58;11.27;;;5.40;;
23561;SDS011;11959;49.418;8.728;2023-06-22T12:10:25;10.05;;;5.82;;
23561;SDS011;11959;49.418;8.728;2023-06-22T12:12:51;9.73;;;5.32;;
23561;SDS011;11959;49.418;8.728;2023-06-22T12:15:17;10.43;;;5.93;;
23561;SDS011;11959;49.418;8.728;2023-06-22T12:17:42;9.23;;;5.43;;
23561;SDS011;11959;49.418;8.728;2023-06-22T12:20:08;7.65;;;5.15;;
23561;SDS011;11959;49.418;8.728;2023-06-22T12:22:34;10.13;;;5.68;;
23561;SDS011;11959;49.418;8.728;2023-06-22T12:25:02;9.27;;;5.78;;
23561;SDS011;11959;49.418;8.728;2023-06-22T12:27:29;9.45;;;5.20;;
23561;SDS011;11959;49.418;8.728;2023-06-22T12:29:55;9.45;;;5.50;;
23561;SDS011;11959;49.418;8.728;2023-06-22T12:32:21;10.05;;;6.00;;
23561;SDS011;11959;49.418;8.728;2023-06-22T12:34:47;8.00;;;5.50;;
23561;SDS011;11959;49.418;8.728;2023-06-22T12:37:12;6.43;;;5.10;;
23561;SDS011;11959;49.418;8.728;2023-06-22T12:39:40;8.25;;;5.57;;
23561;SDS011;11959;49.418;8.728;2023-06-22T12:42:06;9.60;;;5.90;;
23561;SDS011;11959;49.418;8.728;2023-06-22T12:44:33;13.05;;;6.50;;
23561;SDS011;11959;49.418;8.728;2023-06-22T12:47:00;9.65;;;5.60;;
23561;SDS011;11959;49.418;8.728;2023-06-22T12:49:25;6.53;;;5.00;;
23561;SDS011;11959;49.418;8.728;2023-06-22T12:51:51;8.93;;;6.00;;
23561;SDS011;11959;49.418;8.728;2023-06-22T12:54:16;11.38;;;5.93;;
23561;SDS011;11959;49.418;8.728;2023-06-22T12:56:42;9.23;;;5.95;;
23561;SDS011;11959;49.418;8.728;2023-06-22T12:59:10;10.18;;;6.07;;
23561;SDS011;11959;49.418;8.728;2023-06-22T13:01:36;7.15;;;5.40;;
23561;SDS011;11959;49.418;8.728;2023-06-22T13:04:02;9.00;;;5.95;;
23561;SDS011;11959;49.418;8.728;2023-06-22T13:06:28;7.22;;;5.65;;
23561;SDS011;11959;49.418;8.728;2023-06-22T13:08:54;7.97;;;5.20;;
23561;SDS011;11959;49.418;8.728;2023-06-22T13:11:19;6.70;;;5.30;;
23561;SDS011;11959;49.418;8.728;2023-06-22T13:13:45;11.20;;;6.13;;
23561;SDS011;11959;49.418;8.728;2023-06-22T13:16:12;9.20;;;5.63;;
23561;SDS011;11959;49.418;8.728;2023-06-22T13:18:37;10.30;;;5.90;;
23561;SDS011;11959;49.418;8.728;2023-06-22T13:21:04;9.02;;;5.50;;
23561;SDS011;11959;49.418;8.728;2023-06-22T13:23:30;8.75;;;5.47;;
23561;SDS011;11959;49.418;8.728;2023-06-22T13:25:55;8.25;;;5.43;;
23561;SDS011;11959;49.418;8.728;2023-06-22T13:28:22;10.50;;;5.38;;
23561;SDS011;11959;49.418;8.728;2023-06-22T13:30:48;7.45;;;5.38;;
23561;SDS011;11959;49.418;8.728;2023-06-22T13:33:13;9.30;;;5.72;;
23561;SDS011;11959;49.418;8.728;2023-06-22T13:35:40;8.20;;;5.53;;
23561;SDS011;11959;49.418;8.728;2023-06-22T13:38:07;11.07;;;5.40;;
23561;SDS011;11959;49.418;8.728;2023-06-22T13:40:36;9.13;;;5.35;;
23561;SDS011;11959;49.418;8.728;2023-06-22T13:43:03;8.98;;;5.80;;
23561;SDS011;11959;49.418;8.728;2023-06-22T13:45:29;8.95;;;5.30;;
23561;SDS011;11959;49.418;8.728;2023-06-22T13:47:55;8.10;;;5.38;;
23561;SDS011;11959;49.418;8.728;2023-06-22T13:50:21;8.93;;;5.65;;
23561;SDS011;11959;49.418;8.728;2023-06-22T13:52:46;10.18;;;6.10;;
23561;SDS011;11959;49.418;8.728;2023-06-22T13:55:12;10.82;;;6.38;;
23561;SDS011;11959;49.418;8.728;2023-06-22T13:57:39;12.05;;;6.30;;
23561;SDS011;11959;49.418;8.728;2023-06-22T14:00:06;10.90;;;5.68;;
23561;SDS011;11959;49.418;8.728;2023-06-22T14:02:33;11.40;;;6.15;;
23561;SDS011;11959;49.418;8.728;2023-06-22T14:04:59;8.45;;;6.25;;
23561;SDS011;11959;49.418;8.728;2023-06-22T14:07:25;9.43;;;5.72;;
23561;SDS011;11959;49.418;8.728;2023-06-22T14:09:51;8.75;;;5.60;;
23561;SDS011;11959;49.418;8.728;2023-06-22T14:12:17;8.48;;;5.65;;
23561;SDS011;11959;49.418;8.728;2023-06-22T14:14:45;8.05;;;5.88;;
23561;SDS011;11959;49.418;8.728;2023-06-22T14:17:11;7.68;;;5.45;;
23561;SDS011;11959;49.418;8.728;2023-06-22T14:19:36;10.43;;;5.68;;
23561;SDS011;11959;49.418;8.728;2023-06-22T14:22:02;12.30;;;6.47;;
23561;SDS011;11959;49.418;8.728;2023-06-22T14:24:28;9.65;;;5.75;;
23561;SDS011;11959;49.418;8.728;2023-06-22T14:26:54;8.57;;;6.18;;
23561;SDS011;11959;49.418;8.728;2023-06-22T14:29:21;9.27;;;6.07;;
23561;SDS011;11959;49.418;8.728;2023-06-22T14:31:47;10.00;;;6.35;;
23561;SDS011;11959;49.418;8.728;2023-06-22T14:34:13;10.63;;;6.03;;
23561;SDS011;11959;49.418;8.728;2023-06-22T14:36:39;8.00;;;6.18;;
23561;SDS011;11959;49.418;8.728;2023-06-22T14:39:05;11.85;;;6.13;;
23561;SDS011;11959;49.418;8.728;2023-06-22T14:41:31;10.43;;;6.10;;
23561;SDS011;11959;49.418;8.728;2023-06-22T14:43:56;11.55;;;6.13;;
23561;SDS011;11959;49.418;8.728;2023-06-22T14:46:22;11.88;;;6.75;;
23561;SDS011;11959;49.418;8.728;2023-06-22T14:48:48;11.35;;;6.90;;
23561;SDS011;11959;49.418;8.728;2023-06-22T14:51:14;11.32;;;6.75;;